Home > Products > Valid Products > MTR

000
SAUS45 KFGZ 171939
MTRFLG
SPECI KFLG 171938Z 07009KT 3SM +RA BR SCT007 BKN024 OVC033 14/13
A3023 RMK AO2 P0005 T01440133





000
SAUS45 KFGZ 171935
MTRFLG
SPECI KFLG 171934Z 07009KT 1 3/4SM +RA BR BKN007 BKN020 OVC033 14/13
A3023 RMK AO2 P0003 T01440133





000
SAUS45 KFGZ 171859
MTRFLG
METAR KFLG 171857Z 05007KT 3SM -RA BR BKN006 BKN060 OVC070 15/13
A3023 RMK AO2 RAE1758B20 SLP151 P0006 T01500133





000
SAUS45 KFGZ 171843
MTRFLG
SPECI KFLG 171842Z 07008KT 3SM RA BR SCT008 BKN043 OVC055 14/13
A3024 RMK AO2 RAE1758B20 P0003 T01440133





000
SAUS45 KFGZ 171837
MTRFLG
SPECI KFLG 171836Z 06009KT 2 1/2SM RA BR SCT008 BKN018 OVC065 14/13
A3024 RMK AO2 RAE1758B20 P0002 T01440133





000
SAUS45 KFGZ 171830
MTRFLG
SPECI KFLG 171828Z 09009G20KT 5SM -RA BR BKN008 BKN016 OVC065 15/13
A3024 RMK AO2 RAE1758B20 P0000 T01500133





000
SAUS45 KFGZ 171759
MTRFLG
METAR KFLG 171757Z 06007KT 10SM -RA FEW013 SCT037 OVC044 16/13 A3024
RMK AO2 RAB45 SLP154 P0000 60002 T01560133 10161 20133 51002





000
SAUS45 KFGZ 171736
MTRFLG
SPECI KFLG 171734Z 07006KT 10SM SCT010 BKN013 OVC029 16/14 A3024 RMK
AO2 T01610139





000
SAUS45 KFGZ 171727
MTRFLG
SPECI KFLG 171726Z 08004KT 10SM SCT010 BKN018 OVC029 16/13 A3024 RMK
AO2 T01610133





000
SAUS45 KFGZ 171658
MTRFLG
METAR KFLG 171657Z 08006KT 10SM BKN008 BKN015 OVC027 15/13 A3024 RMK
AO2 RAE1558 SLP154 P0000 T01500133





000
SAUS45 KFGZ 171620
MTRFLG
SPECI KFLG 171619Z 07004KT 10SM BKN007 OVC060 15/13 A3024 RMK AO2
RAE1558 P0000 T01500133





000
SAUS45 KFGZ 171612
MTRFLG
SPECI KFLG 171611Z 07003KT 10SM SCT007 OVC060 14/13 A3024 RMK AO2
RAE1558 P0000 T01440128





000
SAUS45 KFGZ 171559
MTRFLG
METAR KFLG 171557Z 08005KT 10SM -RA OVC060 14/13 A3024 RMK AO2
SLP149 P0002 T01440128





000
SAUS45 KFGZ 171512 COR
MTRFLG
SPECI KFLG 171510Z 01003KT 3SM -RA BR FEW007 SCT043 OVC055 14/12
A3024 RMK AO2 P0000 T01390122





000
SAUS45 KFGZ 171458
MTRFLG
METAR KFLG 171457Z 00000KT 5SM -RA BR FEW041 OVC055 14/12 A3023 RMK
AO2 RAB49 SLP151 P0000 60000 T01390122 53006





000
SAUS45 KFGZ 171359
MTRFLG
METAR KFLG 171357Z 06004KT 10SM OVC065 14/12 A3022 RMK AO2 SLP147
T01390117





000
SAUS45 KFGZ 171258
MTRFLG
METAR KFLG 171257Z 00000KT 10SM OVC065 13/12 A3021 RMK AO2 SLP144
T01330122





000
SAUS45 KFGZ 171159
MTRFLG
METAR KFLG 171157Z AUTO 00000KT 10SM OVC060 13/12 A3021 RMK AO2
SLP138 70003 T01330122 10144 20133 55004 TSNO





000
SAUS45 KFGZ 171058
MTRFLG
METAR KFLG 171057Z AUTO 02003KT 10SM OVC050 14/12 A3021 RMK AO2
SLP137 T01390122 TSNO





000
SAUS45 KFGZ 170959
MTRFLG
METAR KFLG 170957Z AUTO 00000KT 10SM FEW047 FEW060 OVC095 14/12
A3021 RMK AO2 SLP138 T01390122 TSNO





000
SAUS45 KFGZ 170858
MTRFLG
METAR KFLG 170857Z AUTO 00000KT 10SM OVC090 13/12 A3023 RMK AO2
SLP133 T01330122 56009 TSNO





000
SAUS45 KFGZ 170759
MTRFLG
METAR KFLG 170757Z AUTO 08004KT 10SM CLR 14/12 A3023 RMK AO2 SLP137
T01390122 TSNO





000
SAUS45 KFGZ 170658
MTRFLG
METAR KFLG 170657Z AUTO 00000KT 10SM SCT080 OVC100 14/13 A3025 RMK
AO2 SLP140 T01440133 402390083 TSNO





000
SAUS45 KFGZ 170558
MTRFLG
METAR KFLG 170557Z AUTO 00000KT 10SM OVC100 14/13 A3026 RMK AO2
RAE18 SLP148 P0001 60003 T01440133 10183 20144 58003 TSNO





000
SAUS45 KFGZ 170458
MTRFLG
METAR KFLG 170457Z AUTO 08005KT 8SM -RA FEW044 SCT070 OVC085 15/13
A3028 RMK AO2 RAB40 SLP155 P0002 T01500128 TSNO





000
SAUS45 KFGZ 170358
MTRFLG
METAR KFLG 170357Z AUTO 00000KT 10SM FEW046 SCT075 OVC100 16/12
A3028 RMK AO2 SLP155 T01610122 TSNO





000
SAUS45 KFGZ 170358
MTRFLG
METAR KFLG 170357Z AUTO 00000KT 10SM FEW046 SCT075 OVC100 16/12
A3028 RMK AO2 SLP155 T01610122 TSNO





000
SAUS45 KFGZ 170258
MTRFLG
METAR KFLG 170257Z 00000KT 10SM SCT038 BKN050 OVC080 16/13 A3027 RMK
AO2 SLP159 T01560133 53010





000
SAUS45 KFGZ 170158
MTRFLG
METAR KFLG 170157Z 00000KT 10SM CLR 16/14 A3025 RMK AO2 SLP166
T01610139





000
SAUS45 KFGZ 170058
MTRFLG
METAR KFLG 170057Z 20007KT 10SM FEW060 17/14 A3024 RMK AO2 SLP163
T01670139





000
SAUS45 KFGZ 162359
MTRFLG
METAR KFLG 162357Z 21006KT 10SM CLR 18/13 A3024 RMK AO2 SLP157
T01830128 10239 20178 58006





000
SAUS45 KFGZ 162258
MTRFLG
METAR KFLG 162257Z AUTO 26005KT 10SM OVC060 18/12 A3025 RMK AO2
WSHFT 2147 SLP161 T01830122 TSNO





000
SAUS45 KFGZ 162208
MTRFLG
SPECI KFLG 162207Z AUTO 22010G19KT 10SM BKN055 BKN070 OVC095 18/13
A3025 RMK AO2 WSHFT 2147 T01830128 TSNO





000
SAUS45 KFGZ 162158
MTRFLG
METAR KFLG 162157Z AUTO 20013KT 10SM BKN060 BKN080 BKN095 18/13
A3026 RMK AO2 SLP163 T01830128 TSNO





000
SAUS45 KFGZ 162058
MTRFLG
METAR KFLG 162057Z 02010KT 10SM FEW048 BKN060 23/11 A3026 RMK AO2
SLP151 T02280106 56019





000
SAUS45 KFGZ 161959
MTRFLG
METAR KFLG 161957Z VRB03KT 10SM BKN050 BKN065 BKN110 22/12 A3028 RMK
AO2 SLP162 T02170117





000
SAUS45 KFGZ 161859
MTRFLG
METAR KFLG 161857Z VRB04KT 10SM SCT046 BKN055 BKN070 22/09 A3030 RMK
AO2 SLP165 T02220094





000
SAUS45 KFGZ 161759
MTRFLG
METAR KFLG 161757Z 00000KT 10SM BKN085 21/10 A3033 RMK AO2 SLP176
T02110100 10217 20083 58004





000
SAUS45 KFGZ 161658
MTRFLG
METAR KFLG 161657Z VRB03KT 10SM FEW045 BKN100 20/11 A3034 RMK AO2
SLP180 T02000111





000
SAUS45 KFGZ 161558
MTRFLG
METAR KFLG 161557Z 25006KT 10SM BKN100 19/11 A3034 RMK AO2 SLP182
T01890106





000
SAUS45 KFGZ 161458
MTRFLG
METAR KFLG 161457Z 00000KT 10SM CLR 17/10 A3034 RMK AO2 SLP183
T01670100 50006





000
SAUS45 KFGZ 161358
MTRFLG
METAR KFLG 161357Z 00000KT 10SM CLR 10/08 A3034 RMK AO2 SLP194
T01000078





000
SAUS45 KFGZ 161258
MTRFLG
METAR KFLG 161257Z 00000KT 10SM CLR 09/07 A3033 RMK AO2 SLP185
T00890067





000
SAUS45 KFGZ 161158
MTRFLG
METAR KFLG 161157Z AUTO 09004KT 10SM CLR 09/07 A3032 RMK AO2 SLP175
T00890067 10122 20083 56004 TSNO





000
SAUS45 KFGZ 161058
MTRFLG
METAR KFLG 161057Z AUTO 00000KT 10SM CLR 09/07 A3032 RMK AO2 SLP170
T00890067 TSNO





000
SAUS45 KFGZ 160958
MTRFLG
METAR KFLG 160957Z AUTO 00000KT 10SM CLR 09/07 A3033 RMK AO2 SLP176
T00890067 TSNO





000
SAUS45 KFGZ 160858
MTRFLG
METAR KFLG 160857Z AUTO 00000KT 10SM CLR 11/07 A3034 RMK AO2 SLP179
T01060072 50000 TSNO





000
SAUS45 KFGZ 160759
MTRFLG
METAR KFLG 160757Z AUTO 00000KT 10SM CLR 11/07 A3034 RMK AO2 SLP175
T01060072 TSNO





000
SAUS45 KFGZ 160658
MTRFLG
METAR KFLG 160657Z AUTO 00000KT 10SM CLR 12/08 A3033 RMK AO2 SLP171
T01170078 402610089 TSNO





000
SAUS45 KFGZ 160558
MTRFLG
METAR KFLG 160557Z AUTO 04004KT 10SM CLR 12/08 A3034 RMK AO2 SLP171
T01220078 10233 20122 53006 TSNO





000
SAUS45 KFGZ 160458
MTRFLG
METAR KFLG 160457Z AUTO 00000KT 10SM CLR 13/08 A3032 RMK AO2 SLP170
T01280083 TSNO





000
SAUS45 KFGZ 160358
MTRFLG
METAR KFLG 160357Z AUTO 00000KT 10SM CLR 14/08 A3032 RMK AO2 SLP169
T01390083 TSNO





000
SAUS45 KFGZ 160258
MTRFLG
METAR KFLG 160257Z 00000KT 10SM CLR 16/08 A3031 RMK AO2 SLP171
T01560083 53010





000
SAUS45 KFGZ 160158
MTRFLG
METAR KFLG 160157Z 21005KT 10SM CLR 18/09 A3030 RMK AO2 SLP173
T01780089





000
SAUS45 KFGZ 160058
MTRFLG
METAR KFLG 160057Z 21010KT 10SM CLR 21/09 A3029 RMK AO2 SLP169
T02110089





000
SAUS45 KFGZ 152358
MTRFLG
METAR KFLG 152357Z 33004KT 10SM FEW090 23/06 A3028 RMK AO2 SLP158
T02330056 10261 20217 55007





000
SAUS45 KFGZ 152258
MTRFLG
METAR KFLG 152257Z 36005KT 10SM CLR 26/04 A3027 RMK AO2 SLP152
T02560039





000
SAUS45 KFGZ 152159
MTRFLG
METAR KFLG 152157Z 29007KT 10SM SCT110 24/04 A3028 RMK AO2 SLP158
T02390039





000
SAUS45 KFGZ 152137
MTRFLG
SPECI KFLG 152136Z 34006KT 10SM BKN110 23/03 A3029 RMK AO2 T02280033





000
SAUS45 KFGZ 152058
MTRFLG
METAR KFLG 152057Z VRB05KT 10SM VCTS FEW080 BKN120 22/04 A3030 RMK
AO2 SLP168 T02220044 56007





000
SAUS45 KFGZ 152039
MTRFLG
SPECI KFLG 152038Z 34007G14KT 10SM VCTS FEW034 BKN085 OVC110 22/04
A3030 RMK AO2 T02220039





000
SAUS45 KFGZ 151958
MTRFLG
METAR KFLG 151957Z 09003KT 10SM CLR 24/05 A3031 RMK AO2 SLP164
T02440050





000
SAUS45 KFGZ 151858
MTRFLG
METAR KFLG 151857Z 09009KT 10SM CLR 25/07 A3032 RMK AO2 SLP165
T02500072





000
SAUS45 KFGZ 151758
MTRFLG
METAR KFLG 151757Z 07007KT 10SM CLR 24/07 A3033 RMK AO2 SLP172
T02390072 10239 20089 50003





000
SAUS45 KFGZ 151658
MTRFLG
METAR KFLG 151657Z 09006KT 10SM CLR 23/09 A3033 RMK AO2 SLP172
T02280094





000
SAUS45 KFGZ 151558
MTRFLG
METAR KFLG 151557Z 00000KT 10SM CLR 22/10 A3032 RMK AO2 SLP170
T02170100





000
SAUS45 KFGZ 151458
MTRFLG
METAR KFLG 151457Z 00000KT 10SM CLR 17/12 A3032 RMK AO2 SLP175
T01720117 51006





000
SAUS45 KFGZ 151358
MTRFLG
METAR KFLG 151357Z 00000KT 10SM CLR 12/09 A3031 RMK AO2 SLP181
T01170089





000
SAUS45 KFGZ 151258
MTRFLG
METAR KFLG 151257Z 00000KT 10SM CLR 09/07 A3031 RMK AO2 SLP179
T00890072





000
SAUS45 KFGZ 151158
MTRFLG
METAR KFLG 151157Z AUTO 00000KT 10SM CLR 09/08 A3029 RMK AO2 SLP169
T00940078 10122 20094 55000 TSNO





000
SAUS45 KFGZ 151058
MTRFLG
METAR KFLG 151057Z AUTO 00000KT 10SM CLR 09/08 A3029 RMK AO2 SLP162
T00940078 TSNO





000
SAUS45 KFGZ 150958
MTRFLG
METAR KFLG 150957Z AUTO 00000KT 10SM BKN080 11/08 A3030 RMK AO2
SLP160 T01060083 TSNO





000
SAUS45 KFGZ 150858
MTRFLG
METAR KFLG 150857Z AUTO 00000KT 10SM SCT080 11/08 A3030 RMK AO2
SLP157 T01060078 51004 TSNO





000
SAUS45 KFGZ 150758
MTRFLG
METAR KFLG 150757Z AUTO 00000KT 10SM CLR 11/08 A3029 RMK AO2 SLP159
T01060083 TSNO





000
SAUS45 KFGZ 150658
MTRFLG
METAR KFLG 150657Z AUTO 00000KT 10SM CLR 11/08 A3029 RMK AO2 SLP157
T01110083 402560089 TSNO





000
SAUS45 KFGZ 150558
MTRFLG
METAR KFLG 150557Z AUTO 00000KT 10SM SCT080 12/08 A3028 RMK AO2
SLP156 T01170083 10217 20111 51010 TSNO





000
SAUS45 KFGZ 150458
MTRFLG
METAR KFLG 150457Z AUTO 00000KT 10SM CLR 13/09 A3028 RMK AO2 SLP156
T01280089 TSNO





000
SAUS45 KFGZ 150358
MTRFLG
METAR KFLG 150357Z AUTO 00000KT 10SM CLR 14/09 A3026 RMK AO2 SLP149
T01390094 TSNO





000
SAUS45 KFGZ 150258
MTRFLG
METAR KFLG 150257Z 08003KT 10SM CLR 14/09 A3025 RMK AO2 SLP153
T01440094 53008





000
SAUS45 KFGZ 150158
MTRFLG
METAR KFLG 150157Z 22003KT 10SM CLR 17/10 A3023 RMK AO2 SLP153
T01670100





000
SAUS45 KFGZ 150058
MTRFLG
METAR KFLG 150057Z 21007KT 10SM CLR 20/11 A3022 RMK AO2 SLP149
T02000106





000
SAUS45 KFGZ 142358
MTRFLG
METAR KFLG 142357Z 24008KT 10SM CLR 22/08 A3022 RMK AO2 SLP143
T02170083 10256 20211 55002





000
SAUS45 KFGZ 142259
MTRFLG
METAR KFLG 142257Z 00000KT 10SM BKN090 24/05 A3021 RMK AO2 SLP135
T02390050





000
SAUS45 KFGZ 142158
MTRFLG
METAR KFLG 142157Z VRB06KT 10SM FEW080 25/05 A3021 RMK AO2 SLP128
T02500050





000
SAUS45 KFGZ 142058
MTRFLG
METAR KFLG 142057Z 09011KT 10SM SCT080 26/06 A3023 RMK AO2 SLP132
T02560061 58015





000
SAUS45 KFGZ 141958
MTRFLG
METAR KFLG 141957Z 06005KT 10SM CLR 24/06 A3025 RMK AO2 SLP144
T02440056





    US Dept of Commerce
    National Oceanic and Atmospheric Administration
    National Weather Service
    1325 East West Highway
    Silver Spring, MD 20910
    Page Author: NWS Internet Services Team
Disclaimer
Information Quality
Credits
Glossary
Privacy Policy
Freedom of Information Act (FOIA)
About Us
Career Opportunities